createdAt,value
2023-10-30T00:04:15.648Z,89.93
2023-10-30T00:09:19.789Z,88.47
2023-10-30T00:14:23.889Z,90.24
2023-10-30T00:19:28.069Z,90.71
2023-10-30T00:24:32.251Z,91.16
2023-10-30T00:29:36.385Z,90.50
2023-10-30T00:34:40.553Z,89.41
2023-10-30T00:39:44.675Z,91.25
2023-10-30T00:44:48.876Z,90.60
2023-10-30T00:49:53.062Z,92.32
2023-10-30T00:54:57.206Z,92.57
2023-10-30T01:00:01.350Z,91.03
2023-10-30T01:05:05.713Z,92.06
2023-10-30T01:10:09.657Z,92.70
2023-10-30T01:15:13.883Z,91.52
2023-10-30T01:20:17.988Z,93.44
2023-10-30T01:25:22.161Z,90.73
2023-10-30T01:30:26.344Z,93.09
2023-10-30T01:35:30.559Z,92.45
2023-10-30T01:40:34.652Z,92.08
2023-10-30T01:45:38.874Z,92.69
2023-10-30T01:50:42.953Z,91.82
2023-10-30T01:55:47.162Z,93.03
2023-10-30T02:00:51.382Z,93.56
2023-10-30T02:05:55.524Z,92.80
2023-10-30T02:10:59.647Z,92.46
2023-10-30T02:16:03.859Z,94.91
2023-10-30T02:21:07.984Z,93.63
2023-10-30T02:26:12.123Z,91.57
2023-10-30T02:31:16.226Z,92.74
2023-10-30T02:36:18.528Z,94.75
2023-10-30T02:41:22.677Z,92.24
2023-10-30T02:46:26.850Z,93.21
2023-10-30T02:51:31.129Z,91.44
2023-10-30T02:56:35.157Z,92.81
2023-10-30T03:01:39.325Z,92.48
2023-10-30T03:06:43.529Z,94.21
2023-10-30T03:11:47.653Z,94.35
2023-10-30T03:16:51.823Z,93.01
2023-10-30T03:21:55.955Z,92.62
2023-10-30T03:27:00.162Z,93.47
2023-10-30T03:32:04.299Z,91.78
2023-10-30T03:37:08.445Z,93.23
2023-10-30T03:42:12.656Z,94.47
2023-10-30T03:47:16.777Z,96.07
2023-10-30T03:52:20.948Z,93.36
2023-10-30T03:57:25.136Z,94.44
2023-10-30T04:02:29.347Z,95.00
2023-10-30T04:07:33.435Z,93.51
2023-10-30T04:12:37.619Z,95.92
2023-10-30T04:17:41.832Z,94.83
2023-10-30T04:22:45.911Z,94.91
2023-10-30T04:27:50.104Z,94.89
2023-10-30T04:32:54.237Z,95.94
2023-10-30T04:37:58.409Z,93.75
2023-10-30T04:43:02.542Z,93.98
2023-10-30T04:48:06.739Z,93.81
2023-10-30T04:53:10.860Z,94.00
2023-10-30T04:58:15.058Z,93.51
2023-10-30T05:03:19.299Z,93.47
2023-10-30T05:08:23.374Z,95.13
2023-10-30T05:13:27.568Z,94.63
2023-10-30T05:18:31.664Z,95.72
2023-10-30T05:23:35.819Z,96.55
2023-10-30T05:28:40.081Z,95.47
2023-10-30T05:33:44.222Z,95.29
2023-10-30T05:38:48.345Z,95.75
2023-10-30T05:43:52.486Z,95.89
2023-10-30T05:48:56.646Z,95.89
2023-10-30T05:54:00.818Z,96.99
2023-10-30T05:59:04.985Z,95.00
2023-10-30T06:04:09.273Z,96.43
2023-10-30T06:09:13.401Z,96.15
2023-10-30T06:14:17.467Z,97.20
2023-10-30T06:19:21.622Z,99.03
2023-10-30T06:24:25.810Z,99.43
2023-10-30T06:29:29.983Z,98.04
2023-10-30T06:34:34.107Z,98.22
2023-10-30T06:39:38.381Z,98.20
2023-10-30T06:44:42.407Z,98.19
2023-10-30T06:49:46.612Z,99.28
2023-10-30T06:54:50.967Z,99.48
2023-10-30T06:59:54.901Z,98.94
2023-10-30T07:04:59.099Z,100.00
2023-10-30T07:10:03.260Z,98.62
2023-10-30T07:15:07.427Z,100.00
2023-10-30T07:20:11.598Z,100.00
2023-10-30T07:25:15.725Z,100.00
2023-10-30T07:30:19.880Z,99.67
2023-10-30T07:35:24.032Z,100.00
2023-10-30T07:40:28.214Z,100.00
2023-10-30T07:45:32.471Z,100.00
2023-10-30T07:50:36.538Z,100.00
2023-10-30T07:55:40.705Z,99.80
2023-10-30T08:00:57.832Z,100.00
2023-10-30T08:05:47.130Z,100.00
2023-10-30T08:10:51.340Z,100.00
2023-10-30T08:15:55.494Z,96.87
2023-10-30T08:21:07.129Z,97.01
2023-10-30T08:26:03.765Z,96.77
2023-10-30T08:31:08.051Z,95.21
2023-10-30T08:36:12.122Z,97.10
2023-10-30T08:41:16.248Z,96.86
2023-10-30T08:46:20.474Z,94.20
2023-10-30T08:56:28.739Z,93.92
2023-10-30T09:01:32.877Z,91.10
2023-10-30T09:06:37.089Z,92.06
2023-10-30T09:11:41.272Z,91.25
2023-10-30T09:16:45.442Z,91.43
2023-10-30T09:21:49.563Z,88.69
2023-10-30T09:26:53.698Z,89.78
2023-10-30T09:31:57.865Z,87.31
2023-10-30T09:37:02.072Z,86.29
2023-10-30T09:42:06.152Z,86.56
2023-10-30T09:47:10.374Z,86.64
2023-10-30T09:52:14.526Z,82.33
2023-10-30T09:57:18.649Z,83.77
2023-10-30T10:02:22.915Z,85.65
2023-10-30T10:07:26.972Z,84.20
2023-10-30T10:17:35.363Z,81.75
2023-10-30T10:22:39.435Z,81.44
2023-10-30T10:27:43.693Z,81.78
2023-10-30T10:32:47.811Z,81.87
2023-10-30T10:37:51.943Z,81.24
2023-10-30T10:42:56.168Z,79.48
2023-10-30T10:48:00.330Z,79.63
2023-10-30T10:53:04.393Z,79.93
2023-10-30T10:58:08.600Z,80.86
2023-10-30T11:03:12.712Z,79.87
2023-10-30T11:08:16.884Z,81.68
2023-10-30T11:13:21.057Z,80.15
2023-10-30T11:18:25.332Z,80.45
2023-10-30T11:23:29.395Z,81.12
2023-10-30T11:28:33.540Z,79.17
2023-10-30T11:33:37.742Z,77.52
2023-10-30T11:38:41.846Z,76.70
2023-10-30T11:43:45.997Z,76.39
2023-10-30T11:48:50.240Z,76.95
2023-10-30T11:53:54.349Z,76.94
2023-10-30T11:58:58.490Z,79.10
2023-10-30T12:04:04.517Z,77.98
2023-10-30T12:09:06.875Z,78.17
2023-10-30T12:14:10.977Z,78.74
2023-10-30T12:19:15.118Z,79.07
2023-10-30T12:24:19.319Z,78.58
2023-10-30T12:29:23.499Z,79.39
2023-10-30T12:34:27.624Z,79.32
2023-10-30T12:39:31.827Z,80.13
2023-10-30T12:44:35.979Z,80.76
2023-10-30T12:49:40.136Z,81.35
2023-10-30T12:54:44.302Z,82.04
2023-10-30T12:59:48.446Z,81.82
2023-10-30T13:04:52.988Z,81.66
2023-10-30T13:09:56.811Z,81.42
2023-10-30T13:15:00.924Z,80.59
2023-10-30T13:20:05.078Z,82.45
2023-10-30T13:25:09.292Z,82.36
2023-10-30T13:30:13.423Z,82.27
2023-10-30T13:35:15.701Z,80.59
2023-10-30T13:40:19.793Z,81.25
2023-10-30T13:45:23.998Z,82.10
2023-10-30T13:50:28.118Z,80.73
2023-10-30T13:55:32.287Z,81.30
2023-10-30T14:00:36.494Z,81.65
2023-10-30T14:05:38.736Z,80.88
2023-10-30T14:10:42.891Z,81.23
2023-10-30T14:15:47.116Z,84.70
2023-10-30T14:20:51.218Z,82.14
2023-10-30T14:25:55.425Z,83.56
2023-10-30T14:30:59.616Z,85.58
2023-10-30T14:36:03.672Z,85.01
2023-10-30T14:41:07.856Z,85.52
2023-10-30T14:46:12.014Z,85.66
2023-10-30T14:51:17.766Z,85.66
2023-10-30T14:56:20.304Z,85.86
2023-10-30T15:01:24.550Z,86.70
2023-10-30T15:11:32.795Z,86.72
2023-10-30T15:16:37.026Z,87.03
2023-10-30T15:21:41.203Z,87.72
2023-10-30T15:26:45.312Z,89.29
2023-10-30T15:31:49.444Z,88.33
2023-10-30T15:36:53.618Z,87.39
2023-10-30T15:41:57.737Z,87.76
2023-10-30T15:47:07.933Z,88.57
2023-10-30T16:02:14.414Z,91.07
2023-10-30T16:07:18.664Z,94.13
2023-10-30T16:12:22.758Z,94.05
2023-10-30T16:17:27.034Z,96.22
2023-10-30T16:22:31.041Z,98.32
2023-10-30T16:27:35.266Z,99.59
2023-10-30T16:32:39.380Z,99.67
2023-10-30T16:37:43.543Z,100.00
2023-10-30T16:42:47.712Z,100.00
2023-10-30T16:47:51.918Z,100.00
2023-10-30T16:52:55.984Z,100.00
2023-10-30T16:58:01.568Z,100.00
2023-10-30T17:03:04.395Z,100.00
2023-10-30T17:08:08.527Z,100.00
2023-10-30T17:13:12.647Z,100.00
2023-10-30T17:18:16.829Z,100.00
2023-10-30T17:23:20.959Z,100.00
2023-10-30T17:28:25.142Z,100.00
2023-10-30T17:33:29.289Z,100.00
2023-10-30T17:38:33.450Z,100.00
2023-10-30T17:43:37.644Z,100.00
2023-10-30T17:48:41.755Z,100.00
2023-10-30T17:53:45.921Z,100.00
2023-10-30T17:58:50.131Z,100.00
2023-10-30T18:03:54.269Z,100.00
2023-10-30T18:08:58.436Z,100.00
2023-10-30T18:14:02.580Z,100.00
2023-10-30T18:19:06.760Z,100.00
2023-10-30T18:24:10.861Z,100.00
2023-10-30T18:29:18.241Z,100.00
2023-10-30T18:34:19.236Z,100.00
2023-10-30T18:39:23.385Z,100.00
2023-10-30T18:44:27.561Z,100.00
2023-10-30T18:49:31.717Z,100.00
2023-10-30T18:54:35.876Z,100.00
2023-10-30T18:59:40.043Z,100.00
2023-10-30T19:04:44.374Z,100.00
2023-10-30T19:09:48.361Z,100.00
2023-10-30T19:14:52.526Z,100.00
2023-10-30T19:19:56.767Z,100.00
2023-10-30T19:25:00.869Z,100.00
2023-10-30T19:30:05.013Z,100.00
2023-10-30T19:35:07.289Z,100.00
2023-10-30T19:40:11.413Z,100.00
2023-10-30T19:45:15.593Z,100.00
2023-10-30T19:50:19.794Z,100.00
2023-10-30T19:55:24.006Z,100.00
2023-10-30T20:00:28.112Z,100.00
2023-10-30T20:05:32.259Z,100.00
2023-10-30T20:10:38.358Z,100.00
2023-10-30T20:15:40.553Z,100.00
2023-10-30T20:20:44.982Z,100.00
2023-10-30T20:25:48.902Z,100.00
2023-10-30T20:30:53.033Z,100.00
2023-10-30T20:35:57.186Z,100.00
2023-10-30T20:41:01.368Z,100.00
2023-10-30T20:46:05.591Z,100.00
2023-10-30T20:51:09.746Z,100.00
2023-10-30T20:56:13.823Z,100.00
2023-10-30T21:01:18.039Z,100.00
2023-10-30T21:06:22.193Z,100.00
2023-10-30T21:11:26.334Z,100.00
2023-10-30T21:16:30.629Z,100.00
2023-10-30T21:21:34.673Z,100.00
2023-10-30T21:26:38.822Z,100.00
2023-10-30T21:31:43.028Z,100.00
2023-10-30T21:36:47.159Z,100.00
2023-10-30T21:41:51.294Z,100.00
2023-10-30T21:46:55.495Z,100.00
2023-10-30T21:51:59.630Z,100.00
2023-10-30T21:57:03.824Z,100.00
2023-10-30T22:02:07.974Z,100.00
2023-10-30T22:07:12.111Z,100.00
2023-10-30T22:12:16.229Z,100.00
2023-10-30T22:17:20.468Z,100.00
2023-10-30T22:22:24.607Z,100.00
2023-10-30T22:27:28.772Z,100.00
2023-10-30T22:32:32.915Z,100.00
2023-10-30T22:37:37.120Z,100.00
2023-10-30T22:42:41.225Z,100.00
2023-10-30T22:47:45.395Z,100.00
2023-10-30T22:52:49.554Z,100.00
2023-10-30T22:57:54.283Z,100.00
2023-10-30T23:02:57.932Z,100.00
2023-10-30T23:08:02.116Z,100.00
2023-10-30T23:13:06.186Z,100.00
2023-10-30T23:18:10.413Z,100.00
2023-10-30T23:23:14.504Z,100.00
2023-10-30T23:28:18.681Z,100.00
2023-10-30T23:33:22.828Z,100.00
2023-10-30T23:38:27.021Z,100.00
2023-10-30T23:43:31.168Z,100.00
2023-10-30T23:48:35.339Z,100.00
2023-10-30T23:53:39.487Z,100.00
2023-10-30T23:58:43.648Z,100.00
